Terminal Aerodrome Forecast
Issued by NWS

Home | Current Version | Previous Version | Text Only | Print | Product List | Glossary On
Versions: 1 2 3 4 5 6 7 8 9 10 11 12 13 14 15 16 17 18 19 20 21 22 23 24 25 26 27 28 29 30
000
FTUS41 KOKX 201129
TAFHPN
TAF
KHPN 201129Z 2012/2112 26008KT P6SM SCT070
     FM201400 28013G18KT P6SM SCT060
     FM201600 28015G22KT P6SM SCT050
     FM202200 28010G17KT P6SM FEW050
     FM210000 25006KT P6SM SKC
     FM210300 VRB04KT P6SM SKC
      AMD NOT SKED=

USA.gov is the U.S. government's official web portal to all federal, state and local government web resources and services.